Time;durP1;ratioP1;P1;durP2;ratioP2;P2;SDS_P1;SDS_P2;PMS_P1;PMS_P2;Temp;Humidity;BMP_temperature;BMP_pressure;BME280_temperature;BME280_humidity;BME280_pressure;Samples;Min_cycle;Max_cycle;Signal;HPM_P1;HPM_P2
2023/02/10 00:00:07;;;;;;;47.40;25.23;;;-1.90;99.90;;;;;;5052244;28;20045;-72
2023/02/10 00:02:41;;;;;;;39.95;24.45;;;-2.10;99.90;;;;;;5073697;28;20053;-72
2023/02/10 00:05:09;;;;;;;44.65;23.70;;;-2.20;99.90;;;;;;5043062;28;20075;-72
2023/02/10 00:07:36;;;;;;;46.05;26.00;;;-2.10;99.90;;;;;;5050740;28;20044;-70
2023/02/10 00:10:04;;;;;;;44.38;25.10;;;-2.00;99.90;;;;;;5061850;28;20124;-71
2023/02/10 00:12:32;;;;;;;44.25;26.67;;;-1.90;99.90;;;;;;5047451;28;20044;-72
2023/02/10 00:15:01;;;;;;;49.22;25.77;;;-1.90;99.90;;;;;;5061235;28;20250;-73
2023/02/10 00:17:29;;;;;;;42.70;25.85;;;-1.80;99.90;;;;;;5057493;28;20040;-71
2023/02/10 00:19:56;;;;;;;52.55;27.60;;;-1.90;99.90;;;;;;5052344;28;20044;-75
2023/02/10 00:22:23;;;;;;;49.30;25.88;;;-1.90;99.90;;;;;;5060878;28;20041;-75
2023/02/10 00:24:53;;;;;;;48.85;28.45;;;-1.90;99.90;;;;;;5060453;28;20691;-73
2023/02/10 00:27:25;;;;;;;52.03;28.67;;;-2.20;99.90;;;;;;5052580;28;20044;-72
2023/02/10 00:29:58;;;;;;;39.75;25.58;;;-2.20;99.90;;;;;;5049944;28;20044;-73
2023/02/10 00:32:25;;;;;;;47.13;27.48;;;-2.00;99.90;;;;;;5052437;28;20048;-74
2023/02/10 00:34:55;;;;;;;46.58;27.88;;;-2.00;99.90;;;;;;5052259;28;20044;-73
2023/02/10 00:37:24;;;;;;;40.47;25.98;;;-1.90;99.90;;;;;;5051270;28;20036;-77
2023/02/10 00:39:52;;;;;;;43.13;25.77;;;-1.80;99.90;;;;;;5052525;28;20047;-75
2023/02/10 00:42:19;;;;;;;41.67;26.70;;;-1.80;99.90;;;;;;5055847;28;20071;-71
2023/02/10 00:44:51;;;;;;;41.47;24.73;;;-1.80;99.90;;;;;;5062045;28;20388;-72
2023/02/10 00:47:18;;;;;;;45.70;26.23;;;-1.90;99.90;;;;;;5065898;28;20064;-73
2023/02/10 00:49:47;;;;;;;42.88;25.30;;;-1.80;99.90;;;;;;5054283;28;20068;-72
2023/02/10 00:52:22;;;;;;;47.80;26.05;;;-1.90;99.90;;;;;;5041402;28;20047;-74
2023/02/10 00:54:52;;;;;;;46.33;26.15;;;-2.00;99.90;;;;;;5059365;28;20037;-72
2023/02/10 00:57:21;;;;;;;45.85;25.38;;;-2.00;99.90;;;;;;5057335;28;20055;-72
2023/02/10 00:59:53;;;;;;;42.28;24.88;;;-2.00;99.90;;;;;;5041483;28;20382;-74
2023/02/10 01:02:23;;;;;;;41.38;25.48;;;-1.90;99.90;;;;;;5057553;28;20508;-75
2023/02/10 01:04:50;;;;;;;38.90;23.85;;;-1.80;99.90;;;;;;5041707;28;20167;-74
2023/02/10 01:07:18;;;;;;;46.38;26.23;;;-1.70;99.90;;;;;;5051506;28;20045;-72
2023/02/10 01:09:45;;;;;;;45.28;25.90;;;-1.80;99.90;;;;;;5060843;28;20722;-71
2023/02/10 01:12:16;;;;;;;39.67;25.83;;;-1.90;99.90;;;;;;5061111;28;20177;-73
2023/02/10 01:14:45;;;;;;;40.78;25.27;;;-2.10;99.90;;;;;;5048510;28;20044;-71
2023/02/10 01:17:12;;;;;;;45.75;25.65;;;-2.10;99.90;;;;;;5052950;28;20039;-76
2023/02/10 01:19:45;;;;;;;37.22;25.13;;;-2.10;99.90;;;;;;5064206;28;20369;-73
2023/02/10 01:22:12;;;;;;;43.50;26.23;;;-2.00;99.90;;;;;;5055139;28;20051;-74
2023/02/10 01:24:39;;;;;;;43.03;25.65;;;-2.00;99.90;;;;;;5054836;28;20139;-71
2023/02/10 01:27:06;;;;;;;39.28;23.30;;;-2.00;99.90;;;;;;5053518;28;20362;-72
2023/02/10 01:29:36;;;;;;;44.95;25.50;;;-1.90;99.90;;;;;;5043603;28;20048;-75
2023/02/10 01:32:04;;;;;;;39.75;25.48;;;-1.90;99.90;;;;;;5051519;28;20393;-76
2023/02/10 01:34:31;;;;;;;40.40;22.25;;;-2.00;99.90;;;;;;5056330;28;20395;-77
2023/02/10 01:36:58;;;;;;;40.03;23.70;;;-1.90;99.90;;;;;;5083421;28;20159;-74
2023/02/10 01:39:26;;;;;;;37.22;23.00;;;-2.00;99.90;;;;;;5053394;28;20131;-75
2023/02/10 01:41:53;;;;;;;36.65;22.95;;;-2.30;99.90;;;;;;5063261;28;20393;-73
2023/02/10 01:44:20;;;;;;;40.17;23.88;;;-2.20;99.90;;;;;;5061200;28;20041;-73
2023/02/10 01:46:49;;;;;;;40.08;22.60;;;-2.00;99.90;;;;;;5061374;28;20041;-75
2023/02/10 01:49:23;;;;;;;42.15;24.20;;;-1.80;99.90;;;;;;5062473;28;20037;-75
2023/02/10 01:51:57;;;;;;;39.00;23.77;;;-1.90;99.90;;;;;;5037378;28;20115;-76
2023/02/10 01:54:29;;;;;;;42.40;24.50;;;-1.80;99.90;;;;;;5044897;28;20047;-74
2023/02/10 01:56:57;;;;;;;39.17;23.02;;;-1.90;99.90;;;;;;5058639;28;20040;-74
2023/02/10 01:59:29;;;;;;;43.40;24.80;;;-2.00;99.90;;;;;;5061321;28;20060;-73
2023/02/10 02:02:11;;;;;;;38.75;25.63;;;-2.10;99.90;;;;;;5062011;28;20387;-72
2023/02/10 02:05:01;;;;;;;37.63;24.35;;;-2.10;99.90;;;;;;5057778;22;20037;-75
2023/02/10 02:07:36;;;;;;;58.22;28.08;;;-2.10;99.90;;;;;;5052274;28;20048;-73
2023/02/10 02:10:06;;;;;;;58.95;31.20;;;-2.30;99.90;;;;;;5053561;28;20037;-71
2023/02/10 02:12:46;;;;;;;54.42;29.67;;;-2.70;99.90;;;;;;5051814;28;20435;-75
2023/02/10 02:15:19;;;;;;;51.55;28.10;;;-2.70;99.90;;;;;;5051258;28;20063;-74
2023/02/10 02:18:11;;;;;;;53.28;30.40;;;-2.60;99.90;;;;;;5049355;28;20065;-71
2023/02/10 02:21:00;;;;;;;53.15;29.05;;;-2.50;99.90;;;;;;5034630;28;20038;-72
2023/02/10 02:23:56;;;;;;;49.67;29.75;;;-2.60;99.90;;;;;;5051629;28;20049;-75
2023/02/10 02:26:43;;;;;;;58.83;31.92;;;-2.40;99.90;;;;;;5052390;28;20400;-74
2023/02/10 02:29:49;;;;;;;56.20;31.70;;;-2.70;99.90;;;;;;5049574;28;20052;-71
2023/02/10 02:32:25;;;;;;;48.80;29.95;;;-2.70;99.90;;;;;;5051925;28;20515;-75
2023/02/10 02:35:02;;;;;;;55.25;31.55;;;-2.70;99.90;;;;;;5051300;28;20045;-73
2023/02/10 02:37:33;;;;;;;60.17;30.15;;;-2.60;99.90;;;;;;5036382;28;20041;-75
2023/02/10 02:40:04;;;;;;;52.00;31.70;;;-2.50;99.90;;;;;;5052779;28;20049;-73
2023/02/10 02:42:34;;;;;;;50.90;30.70;;;-2.40;99.90;;;;;;5052901;28;20037;-73
2023/02/10 02:45:21;;;;;;;65.93;31.83;;;-2.60;99.90;;;;;;5067289;28;20053;-73
2023/02/10 02:48:22;;;;;;;58.95;32.15;;;-2.60;99.90;;;;;;5039412;28;20076;-76
2023/02/10 02:51:12;;;;;;;68.15;29.65;;;-2.60;99.90;;;;;;5052494;28;20041;-74
2023/02/10 02:53:46;;;;;;;56.58;31.20;;;-2.70;99.90;;;;;;5051266;28;20059;-73
2023/02/10 02:56:48;;;;;;;50.90;29.42;;;-2.50;99.90;;;;;;5052653;28;20044;-74
2023/02/10 02:59:56;;;;;;;55.88;28.23;;;-2.70;99.90;;;;;;5051355;28;20110;-72
2023/02/10 03:02:28;;;;;;;53.03;29.10;;;-2.60;99.90;;;;;;5001880;28;20408;-71
2023/02/10 03:04:59;;;;;;;41.72;26.55;;;-2.50;99.90;;;;;;5015748;28;20088;-70
2023/02/10 03:07:29;;;;;;;45.50;27.60;;;-2.70;99.90;;;;;;5015072;28;20084;-71
2023/02/10 03:09:59;;;;;;;53.40;29.08;;;-2.80;99.90;;;;;;5031819;28;20396;-70
2023/02/10 03:12:27;;;;;;;48.45;28.42;;;-2.70;99.90;;;;;;5027787;28;20401;-71
2023/02/10 03:14:57;;;;;;;45.70;26.38;;;-2.80;99.90;;;;;;5032381;28;20512;-69
2023/02/10 03:17:26;;;;;;;47.25;29.90;;;-2.80;99.90;;;;;;5015133;28;20505;-71
2023/02/10 03:19:53;;;;;;;46.45;27.27;;;-2.80;99.90;;;;;;5032143;28;20044;-74
2023/02/10 03:22:20;;;;;;;47.88;27.80;;;-3.00;99.90;;;;;;5032061;28;20053;-72
2023/02/10 03:24:50;;;;;;;45.78;26.67;;;-3.10;99.90;;;;;;5047210;28;20382;-73
2023/02/10 03:27:17;;;;;;;40.38;24.95;;;-3.10;99.90;;;;;;5011763;28;20111;-73
2023/02/10 03:29:49;;;;;;;39.90;23.63;;;-3.10;99.90;;;;;;5012293;28;20179;-72
2023/02/10 03:32:17;;;;;;;38.90;22.53;;;-3.10;99.90;;;;;;5015568;28;20041;-75
2023/02/10 03:34:44;;;;;;;36.38;21.00;;;-3.00;99.90;;;;;;5024526;28;20040;-72
2023/02/10 03:37:12;;;;;;;35.08;20.75;;;-3.00;99.90;;;;;;5047556;28;20133;-71
2023/02/10 03:39:39;;;;;;;33.90;19.70;;;-3.00;99.90;;;;;;5031073;28;20060;-72
2023/02/10 03:42:09;;;;;;;40.60;21.13;;;-3.10;99.90;;;;;;5014448;28;20033;-71
2023/02/10 03:44:37;;;;;;;;;;;-3.00;99.90;;;;;;5104433;23;20051;-76
2023/02/10 03:47:06;;;;;;;34.35;21.70;;;-2.90;99.90;;;;;;5074897;28;19967;-72
2023/02/10 03:49:34;;;;;;;33.70;21.70;;;-2.80;99.90;;;;;;5074476;28;20110;-74
2023/02/10 03:52:02;;;;;;;38.50;22.95;;;-2.80;99.90;;;;;;5088885;28;20413;-74
2023/02/10 03:54:31;;;;;;;39.60;23.73;;;-2.80;99.90;;;;;;5073966;28;20146;-74
2023/02/10 03:57:01;;;;;;;38.90;23.85;;;-2.70;99.90;;;;;;5071318;28;20140;-74
2023/02/10 03:59:31;;;;;;;41.97;23.52;;;-3.00;99.90;;;;;;5101859;28;20052;-74
2023/02/10 04:02:05;;;;;;;34.85;21.20;;;-3.20;99.90;;;;;;5071068;28;20114;-74
2023/02/10 04:04:33;;;;;;;35.50;21.10;;;-3.30;99.90;;;;;;5078471;28;20462;-73
2023/02/10 04:07:04;;;;;;;32.10;19.55;;;-3.30;99.90;;;;;;5072275;28;20052;-74
2023/02/10 04:09:32;;;;;;;37.70;20.40;;;-3.40;99.90;;;;;;5087388;28;20459;-73
2023/02/10 04:12:02;;;;;;;30.65;19.42;;;-3.30;99.90;;;;;;5091272;28;20051;-72
2023/02/10 04:14:29;;;;;;;37.35;19.30;;;-3.20;99.90;;;;;;5090453;28;20036;-73
2023/02/10 04:16:57;;;;;;;32.65;18.88;;;-3.30;99.90;;;;;;5089595;28;20044;-73
2023/02/10 04:19:24;;;;;;;33.97;20.00;;;-3.20;99.90;;;;;;5091182;28;20040;-74
2023/02/10 04:21:54;;;;;;;33.42;21.55;;;-3.30;99.90;;;;;;5090730;28;20040;-73
2023/02/10 04:24:21;;;;;;;27.05;16.92;;;-3.40;99.90;;;;;;5090520;28;20078;-72
2023/02/10 04:26:48;;;;;;;30.48;17.33;;;-3.50;99.90;;;;;;5089315;28;20043;-72
2023/02/10 04:29:16;;;;;;;26.25;16.05;;;-3.50;99.90;;;;;;5085851;28;20469;-76
2023/02/10 04:31:57;;;;;;;27.65;18.67;;;-3.50;99.90;;;;;;5092853;22;20459;-75
2023/02/10 04:34:26;;;;;;;28.55;18.83;;;-3.40;99.90;;;;;;5056509;28;20047;-73
2023/02/10 04:36:54;;;;;;;26.55;16.02;;;-3.30;99.90;;;;;;5086833;28;20392;-75
2023/02/10 04:39:22;;;;;;;29.08;16.08;;;-3.30;99.90;;;;;;5082982;28;20808;-71
2023/02/10 04:41:49;;;;;;;30.45;17.40;;;-3.40;99.90;;;;;;5043667;22;20434;-73
2023/02/10 04:44:17;;;;;;;27.42;17.52;;;-3.50;99.90;;;;;;5033808;28;20049;-76
2023/02/10 04:46:48;;;;;;;32.83;17.65;;;-3.40;99.90;;;;;;5033097;28;20028;-72
2023/02/10 04:49:16;;;;;;;41.00;19.13;;;-3.50;99.90;;;;;;5014323;28;20052;-73
2023/02/10 04:51:44;;;;;;;27.63;17.25;;;-3.40;99.90;;;;;;5031667;28;20500;-76
2023/02/10 04:54:11;;;;;;;30.00;18.45;;;-3.40;99.90;;;;;;5017310;28;20051;-73
2023/02/10 04:56:39;;;;;;;29.45;17.25;;;-3.40;99.90;;;;;;5016626;28;20041;-75
2023/02/10 04:59:06;;;;;;;27.17;17.90;;;-3.70;99.90;;;;;;5049656;28;20041;-74
2023/02/10 05:01:34;;;;;;;33.78;17.55;;;-3.60;99.90;;;;;;5033246;28;20424;-71
2023/02/10 05:04:01;;;;;;;24.00;16.48;;;-3.70;99.90;;;;;;5050307;28;20048;-73
2023/02/10 05:06:28;;;;;;;28.13;17.30;;;-3.60;99.90;;;;;;5050293;28;20045;-70
2023/02/10 05:08:59;;;;;;;25.30;15.55;;;-3.60;99.90;;;;;;5032874;28;20049;-73
2023/02/10 05:11:28;;;;;;;27.65;17.35;;;-3.60;99.90;;;;;;5033008;28;20068;-70
2023/02/10 05:14:01;;;;;;;27.70;18.70;;;-3.50;99.90;;;;;;5008760;28;20371;-75
2023/02/10 05:16:28;;;;;;;34.80;17.52;;;-3.40;99.90;;;;;;5005114;28;20045;-71
2023/02/10 05:18:56;;;;;;;28.27;17.60;;;-3.50;99.90;;;;;;5017122;28;20048;-73
2023/02/10 05:21:26;;;;;;;25.55;17.30;;;-3.70;99.90;;;;;;5048711;28;20048;-71
2023/02/10 05:23:53;;;;;;;26.40;17.77;;;-4.00;99.90;;;;;;5017085;28;20056;-75
2023/02/10 05:26:20;;;;;;;30.08;16.20;;;-3.90;99.90;;;;;;5050243;28;20420;-74
2023/02/10 05:28:56;;;;;;;27.95;17.23;;;-3.70;99.90;;;;;;5013935;28;20105;-72
2023/02/10 05:31:23;;;;;;;41.10;18.80;;;-3.70;99.90;;;;;;5032407;28;20496;-71
2023/02/10 05:33:53;;;;;;;29.58;17.08;;;-3.60;99.90;;;;;;5024157;28;20053;-74
2023/02/10 05:36:23;;;;;;;27.52;16.15;;;-3.80;99.90;;;;;;5047436;28;20037;-74
2023/02/10 05:41:45;;;;;;;27.85;16.67;;;-3.80;99.90;;;;;;5035113;28;20053;-71
2023/02/10 05:44:12;;;;;;;24.90;15.48;;;-3.70;99.90;;;;;;5035398;28;20051;-72
2023/02/10 05:46:39;;;;;;;30.20;16.83;;;-3.60;99.90;;;;;;5047832;28;20435;-73
2023/02/10 05:49:14;;;;;;;25.83;17.15;;;-3.60;99.90;;;;;;5035760;28;20072;-71
2023/02/10 05:51:44;;;;;;;67.43;31.30;;;-3.50;99.90;;;;;;5052094;28;20068;-73
2023/02/10 05:54:12;;;;;;;138.15;68.65;;;-3.10;99.90;;;;;;5068955;28;20041;-77
2023/02/10 05:56:40;;;;;;;52.58;30.10;;;-2.80;99.90;;;;;;5061726;28;20051;-72
2023/02/10 05:59:08;;;;;;;55.28;24.95;;;-2.70;99.90;;;;;;5035494;28;20396;-75
2023/02/10 06:01:36;;;;;;;35.78;20.05;;;-3.00;99.90;;;;;;5049779;28;20492;-73
2023/02/10 06:04:10;;;;;;;90.45;44.05;;;-3.30;99.90;;;;;;5054921;28;20059;-73
2023/02/10 06:06:37;;;;;;;58.25;31.10;;;-3.40;99.90;;;;;;5038667;28;20427;-69
2023/02/10 06:09:05;;;;;;;32.17;20.85;;;-3.30;99.90;;;;;;5038065;28;20060;-71
2023/02/10 06:11:32;;;;;;;26.70;19.77;;;-3.20;99.90;;;;;;5073167;28;20029;-70
2023/02/10 06:14:00;;;;;;;31.95;19.88;;;-3.10;99.90;;;;;;5065329;22;20866;-70
2023/02/10 06:16:28;;;;;;;38.65;21.05;;;-3.00;99.90;;;;;;5054694;28;20045;-72
2023/02/10 06:18:55;;;;;;;36.63;21.30;;;-3.00;99.90;;;;;;5038563;28;20045;-76
2023/02/10 06:21:25;;;;;;;31.65;19.02;;;-3.10;99.90;;;;;;5056488;28;20110;-75
2023/02/10 06:23:53;;;;;;;30.55;18.65;;;-3.00;99.90;;;;;;5051984;28;20151;-76
2023/02/10 06:26:20;;;;;;;31.40;18.67;;;-3.10;99.90;;;;;;5061440;28;20048;-77
2023/02/10 06:28:47;;;;;;;32.40;18.40;;;-3.20;99.90;;;;;;5060859;28;20068;-75
2023/02/10 06:31:14;;;;;;;29.27;17.75;;;-3.20;99.90;;;;;;5050121;28;20039;-72
2023/02/10 06:33:42;;;;;;;27.55;16.67;;;-3.20;99.90;;;;;;5061899;28;20052;-73
2023/02/10 06:36:11;;;;;;;26.05;17.52;;;-3.60;99.90;;;;;;5060626;28;20047;-69
2023/02/10 06:38:39;;;;;;;29.73;17.52;;;-3.50;99.90;;;;;;5060958;28;20132;-72
2023/02/10 06:41:07;;;;;;;29.48;17.25;;;-3.40;99.90;;;;;;5041789;28;20072;-70
2023/02/10 06:43:37;;;;;;;25.95;15.90;;;-3.10;99.90;;;;;;5055288;28;20458;-74
2023/02/10 06:46:07;;;;;;;28.70;15.98;;;-3.10;99.90;;;;;;5046538;28;20064;-74
2023/02/10 06:48:40;;;;;;;33.72;15.35;;;-3.00;99.90;;;;;;5037683;28;20881;-75
2023/02/10 06:51:10;;;;;;;23.73;16.15;;;-2.70;99.90;;;;;;5056599;28;20041;-70
2023/02/10 06:53:37;;;;;;;27.90;16.65;;;-2.70;99.90;;;;;;5046832;28;20128;-71
2023/02/10 06:56:08;;;;;;;24.25;16.80;;;-2.70;99.90;;;;;;5051728;28;20037;-71
2023/02/10 06:58:36;;;;;;;26.30;16.58;;;-2.80;99.90;;;;;;5044290;28;20048;-75
2023/02/10 07:01:23;;;;;;;26.58;17.65;;;-2.70;99.90;;;;;;5059047;28;20063;-76
2023/02/10 07:03:50;;;;;;;24.92;16.83;;;-2.80;99.90;;;;;;5053792;28;20110;-75
2023/02/10 07:06:18;;;;;;;24.70;16.20;;;-2.80;99.90;;;;;;5068871;28;20048;-72
2023/02/10 07:08:50;;;;;;;33.72;17.33;;;-2.90;99.90;;;;;;5020767;28;20048;-75
2023/02/10 07:11:17;;;;;;;28.98;17.05;;;-2.70;99.90;;;;;;5036486;28;20037;-75
2023/02/10 07:13:47;;;;;;;29.38;17.80;;;-2.50;99.90;;;;;;5064282;28;20132;-72
2023/02/10 07:16:25;;;;;;;29.70;18.45;;;-2.40;99.90;;;;;;5036925;28;20045;-72
2023/02/10 07:18:53;;;;;;;28.30;16.80;;;-2.30;99.90;;;;;;5034787;28;20508;-71
2023/02/10 07:21:27;;;;;;;32.42;20.08;;;-2.20;99.90;;;;;;5068037;28;20036;-76
2023/02/10 07:24:03;;;;;;;27.63;18.60;;;-2.20;99.90;;;;;;5042083;28;20072;-75
2023/02/10 07:26:34;;;;;;;35.45;19.00;;;-2.00;99.90;;;;;;5053345;28;20048;-76
2023/02/10 07:29:19;;;;;;;31.58;17.52;;;-1.70;99.90;;;;;;5071640;28;20052;-72
2023/02/10 07:31:50;;;;;;;30.05;18.77;;;-1.50;99.90;;;;;;5072491;28;20564;-73
2023/02/10 07:34:26;;;;;;;30.55;18.60;;;-1.30;99.90;;;;;;5057047;28;20058;-71
2023/02/10 07:37:10;;;;;;;26.60;18.27;;;-1.30;99.90;;;;;;5067005;28;20067;-73
2023/02/10 07:39:47;;;;;;;32.70;19.02;;;-1.30;99.90;;;;;;5045994;28;20076;-76
2023/02/10 07:42:27;;;;;;;30.98;19.27;;;-1.20;99.90;;;;;;5037964;28;20052;-74
2023/02/10 07:45:21;;;;;;;31.77;20.02;;;-1.20;99.90;;;;;;5044627;28;20044;-76
2023/02/10 07:47:52;;;;;;;42.20;21.10;;;-1.00;99.90;;;;;;5046765;28;20231;-71
2023/02/10 07:50:24;;;;;;;37.28;21.58;;;-1.00;99.90;;;;;;5038995;28;20040;-74
2023/02/10 07:52:52;;;;;;;38.65;21.70;;;-0.80;99.90;;;;;;5054433;28;20044;-75
2023/02/10 07:55:19;;;;;;;40.25;22.92;;;-0.70;99.90;;;;;;5038335;28;20051;-73
2023/02/10 07:57:53;;;;;;;37.33;23.55;;;-0.50;99.90;;;;;;5035200;28;20072;-71
2023/02/10 08:00:23;;;;;;;37.50;23.65;;;-0.50;99.90;;;;;;5036313;28;20132;-69
2023/02/10 08:03:01;;;;;;;42.63;23.98;;;-0.50;99.90;;;;;;5053034;28;20041;-69
2023/02/10 08:05:29;;;;;;;45.10;24.80;;;-0.60;99.90;;;;;;5073066;28;20080;-72
2023/02/10 08:08:02;;;;;;;42.53;24.83;;;-0.70;99.90;;;;;;5068632;28;20060;-75
2023/02/10 08:10:38;;;;;;;40.08;24.95;;;-0.40;99.90;;;;;;5053944;28;20135;-71
2023/02/10 08:13:06;;;;;;;42.67;25.60;;;-0.50;99.60;;;;;;5037916;28;20076;-72
2023/02/10 08:15:35;;;;;;;42.15;25.73;;;-0.60;99.90;;;;;;5036873;28;20496;-70
2023/02/10 08:18:04;;;;;;;43.92;26.05;;;-0.50;99.90;;;;;;5050287;28;20036;-75
2023/02/10 08:20:34;;;;;;;46.90;27.38;;;-0.40;99.50;;;;;;5052046;28;20397;-71
2023/02/10 08:23:05;;;;;;;54.22;26.67;;;-0.20;99.20;;;;;;5038060;28;20466;-74
2023/02/10 08:25:33;;;;;;;46.30;26.88;;;0.00;99.10;;;;;;5065153;28;20522;-71
2023/02/10 08:28:04;;;;;;;42.90;26.65;;;0.20;98.70;;;;;;5045023;28;20048;-72
2023/02/10 08:30:44;;;;;;;47.25;28.20;;;0.30;98.10;;;;;;5053110;28;20052;-70
2023/02/10 08:33:12;;;;;;;48.10;29.40;;;0.30;97.90;;;;;;5036421;28;20032;-72
2023/02/10 08:35:42;;;;;;;56.60;31.45;;;0.30;97.40;;;;;;5053925;28;20373;-72
2023/02/10 08:38:21;;;;;;;55.92;29.73;;;0.40;97.00;;;;;;5068701;28;20036;-71
2023/02/10 08:40:56;;;;;;;48.40;30.45;;;0.40;96.80;;;;;;5034478;28;20057;-70
2023/02/10 08:43:25;;;;;;;52.97;30.88;;;0.50;96.70;;;;;;5020277;28;20043;-71
2023/02/10 08:45:56;;;;;;;48.75;29.65;;;0.70;96.90;;;;;;5053756;28;20059;-69
2023/02/10 08:48:23;;;;;;;51.80;31.75;;;0.80;96.30;;;;;;5036234;28;20701;-72
2023/02/10 08:50:50;;;;;;;54.75;31.85;;;0.60;96.70;;;;;;5035201;28;20532;-74
2023/02/10 08:53:18;;;;;;;52.15;29.48;;;1.00;97.90;;;;;;5052828;28;20477;-70
2023/02/10 08:55:56;;;;;;;47.72;29.63;;;0.90;96.60;;;;;;5036228;28;20067;-71
2023/02/10 08:58:30;;;;;;;43.88;27.02;;;0.90;96.60;;;;;;5039525;28;20049;-72
2023/02/10 09:00:57;;;;;;;;;;;1.20;96.10;;;;;;5040446;28;20049;-77
2023/02/10 09:03:28;;;;;;;42.00;24.65;;;1.00;95.20;;;;;;5067469;28;19928;-73
2023/02/10 09:05:55;;;;;;;34.60;22.63;;;1.20;95.50;;;;;;5052926;28;20412;-71
2023/02/10 09:08:23;;;;;;;37.00;22.48;;;1.40;95.00;;;;;;5054402;28;20070;-75
2023/02/10 09:10:57;;;;;;;32.38;21.52;;;1.60;94.00;;;;;;5068805;28;20036;-72
2023/02/10 09:13:25;;;;;;;28.55;19.10;;;1.10;94.50;;;;;;5048047;28;20109;-71
2023/02/10 09:15:55;;;;;;;35.22;20.45;;;1.40;92.90;;;;;;5049936;22;20049;-75
2023/02/10 09:18:26;;;;;;;31.08;20.70;;;1.20;92.90;;;;;;5088725;28;20048;-71
2023/02/10 09:21:31;;;;;;;30.85;19.35;;;1.80;93.30;;;;;;5054961;28;20425;-70
2023/02/10 09:24:17;;;;;;;31.88;19.58;;;2.10;92.50;;;;;;5054607;28;20119;-74
2023/02/10 09:26:54;;;;;;;29.75;18.20;;;2.30;91.20;;;;;;5070557;28;20129;-72
2023/02/10 09:29:24;;;;;;;25.60;18.83;;;2.40;90.20;;;;;;5052764;28;20475;-74
2023/02/10 09:32:03;;;;;;;28.67;17.92;;;2.70;90.50;;;;;;5048238;28;20122;-72
2023/02/10 09:34:44;;;;;;;30.55;19.08;;;2.70;88.40;;;;;;5035720;28;20638;-72
2023/02/10 09:37:13;;;;;;;32.55;20.98;;;2.40;89.10;;;;;;5069888;28;20040;-73
2023/02/10 09:39:43;;;;;;;28.38;18.30;;;2.60;88.20;;;;;;5059540;28;20044;-71
2023/02/10 09:42:29;;;;;;;28.90;18.90;;;2.80;86.30;;;;;;5073041;28;20043;-75
2023/02/10 09:45:13;;;;;;;27.83;19.10;;;3.10;85.10;;;;;;5072927;28;20052;-73
2023/02/10 09:47:59;;;;;;;33.97;22.98;;;3.30;83.80;;;;;;5089976;28;20483;-72
2023/02/10 09:50:30;;;;;;;25.60;15.82;;;3.50;82.80;;;;;;5076229;28;20115;-70
2023/02/10 09:53:20;;;;;;;25.08;16.50;;;3.60;80.90;;;;;;5057454;28;20561;-72
2023/02/10 09:56:03;;;;;;;23.88;16.35;;;3.90;80.80;;;;;;5073211;28;20043;-72
2023/02/10 09:58:58;;;;;;;25.95;16.48;;;4.10;79.40;;;;;;5053790;28;20142;-72
2023/02/10 10:01:52;;;;;;;27.45;17.50;;;4.10;78.60;;;;;;5089746;28;20429;-73
2023/02/10 10:04:22;;;;;;;22.67;16.05;;;4.30;78.10;;;;;;5071493;28;20442;-74
2023/02/10 10:06:55;;;;;;;22.35;14.57;;;4.50;76.50;;;;;;5074782;28;20062;-73
2023/02/10 10:09:46;;;;;;;16.63;12.35;;;4.70;74.50;;;;;;5052323;28;20066;-75
2023/02/10 10:12:19;;;;;;;19.60;14.55;;;4.60;71.90;;;;;;5047439;28;20040;-75
2023/02/10 10:14:47;;;;;;;24.67;15.35;;;4.60;72.20;;;;;;5079533;22;20170;-75
2023/02/10 10:17:38;;;;;;;31.95;18.30;;;4.20;73.50;;;;;;5053473;28;20055;-74
2023/02/10 10:20:17;;;;;;;24.27;15.68;;;5.10;79.20;;;;;;5058083;28;20032;-72
2023/02/10 10:23:04;;;;;;;26.33;15.38;;;6.10;73.50;;;;;;5057023;28;20432;-71
2023/02/10 10:26:12;;;;;;;17.55;11.98;;;6.40;70.60;;;;;;5057646;28;20044;-74
2023/02/10 10:28:50;;;;;;;21.70;14.18;;;6.20;67.10;;;;;;5074515;28;20067;-72
2023/02/10 10:31:24;;;;;;;17.52;11.63;;;5.80;68.80;;;;;;5069321;28;20048;-72
2023/02/10 10:34:02;;;;;;;17.77;11.73;;;5.60;67.50;;;;;;5058053;28;20131;-75
2023/02/10 10:36:33;;;;;;;21.08;11.25;;;5.70;67.20;;;;;;5072065;28;20207;-72
2023/02/10 10:39:17;;;;;;;19.17;12.07;;;5.90;65.50;;;;;;5057100;28;20036;-72
2023/02/10 10:41:46;;;;;;;19.55;12.32;;;5.60;65.80;;;;;;5045820;22;20057;-70
2023/02/10 10:44:18;;;;;;;18.80;12.35;;;5.90;66.50;;;;;;5027845;28;20399;-71
2023/02/10 10:46:48;;;;;;;16.13;11.85;;;6.30;66.20;;;;;;5022422;28;20054;-74
2023/02/10 10:49:16;;;;;;;16.30;11.48;;;6.30;65.20;;;;;;5058802;28;20123;-73
2023/02/10 10:51:47;;;;;;;19.27;11.90;;;6.60;64.40;;;;;;5048304;28;20049;-73
2023/02/10 10:54:20;;;;;;;18.17;11.88;;;6.70;62.60;;;;;;5035254;28;20393;-74
2023/02/10 10:57:01;;;;;;;17.90;12.95;;;7.00;64.50;;;;;;5066849;28;20140;-73
2023/02/10 10:59:48;;;;;;;21.23;13.20;;;8.30;68.20;;;;;;5064325;28;20045;-72
2023/02/10 11:02:25;;;;;;;18.33;12.25;;;8.50;62.00;;;;;;5028238;28;20404;-73
2023/02/10 11:05:17;;;;;;;17.00;11.20;;;8.20;60.50;;;;;;5029792;28;20049;-76
2023/02/10 11:07:51;;;;;;;17.50;11.98;;;7.80;60.70;;;;;;5041897;28;20457;-70
2023/02/10 11:10:49;;;;;;;15.82;9.68;;;8.30;58.70;;;;;;5035278;28;20051;-73
2023/02/10 11:13:31;;;;;;;;;;;9.70;55.20;;;;;;5040919;28;20044;-71
2023/02/10 11:16:06;;;;;;;12.57;8.75;;;10.70;51.10;;;;;;5029409;28;19962;-73
2023/02/10 11:18:37;;;;;;;14.45;9.75;;;11.30;49.40;;;;;;5028689;28;20049;-73
2023/02/10 11:21:15;;;;;;;14.85;10.07;;;13.30;47.00;;;;;;5042551;28;20047;-71
2023/02/10 11:23:55;;;;;;;15.77;9.52;;;15.30;42.80;;;;;;5046127;28;20104;-72
2023/02/10 11:26:26;;;;;;;15.25;9.57;;;14.00;42.40;;;;;;5043485;28;20124;-73
2023/02/10 11:28:55;;;;;;;14.30;9.05;;;14.30;42.40;;;;;;5028825;28;20054;-71
2023/02/10 11:31:34;;;;;;;;;;;15.80;40.30;;;;;;5030825;28;20056;-72
2023/02/10 11:34:49;;;;;;;16.10;9.60;;;16.20;39.50;;;;;;5032452;28;20093;-70
2023/02/10 11:37:37;;;;;;;15.60;10.30;;;14.80;41.20;;;;;;5011985;28;20471;-72
2023/02/10 11:40:23;;;;;;;12.60;9.80;;;13.80;43.70;;;;;;5030591;28;20174;-72
2023/02/10 11:42:58;;;;;;;15.88;10.07;;;12.30;45.20;;;;;;5035352;28;20057;-72
2023/02/10 11:45:32;;;;;;;13.75;10.10;;;12.00;46.30;;;;;;5022189;28;20075;-74
2023/02/10 11:48:17;;;;;;;16.17;9.90;;;10.90;47.90;;;;;;5035989;28;20433;-73
2023/02/10 11:50:46;;;;;;;14.60;10.05;;;10.60;48.40;;;;;;5049604;28;20072;-74
2023/02/10 11:53:30;;;;;;;12.50;8.85;;;9.90;48.80;;;;;;5034673;28;20096;-73
2023/02/10 11:56:16;;;;;;;12.25;9.00;;;9.50;50.00;;;;;;5026189;28;20424;-73
2023/02/10 11:59:10;;;;;;;12.27;9.27;;;9.90;48.80;;;;;;5033306;28;20048;-73
2023/02/10 12:01:49;;;;;;;14.02;9.48;;;10.20;48.60;;;;;;5069644;28;20045;-75
2023/02/10 12:04:39;;;;;;;15.15;9.88;;;9.40;49.50;;;;;;5053179;28;20041;-74
2023/02/10 12:07:32;;;;;;;16.02;10.07;;;9.90;49.60;;;;;;5032710;28;20045;-73
2023/02/10 12:10:41;;;;;;;16.45;8.77;;;11.10;53.10;;;;;;5030669;28;20056;-74
2023/02/10 12:14:00;;;;;;;12.43;8.65;;;10.50;51.10;;;;;;5005343;28;20525;-73
2023/02/10 12:17:15;;;;;;;15.48;9.52;;;10.90;47.90;;;;;;5033402;28;20419;-73
2023/02/10 12:20:02;;;;;;;18.10;8.95;;;12.10;50.90;;;;;;5059744;28;20048;-73
2023/02/10 12:23:24;;;;;;;14.10;8.82;;;15.90;43.50;;;;;;5058795;28;20453;-74
2023/02/10 12:26:01;;;;;;;12.32;8.15;;;19.40;39.70;;;;;;5007849;28;20486;-75
2023/02/10 12:29:04;;;;;;;13.13;8.30;;;18.70;37.90;;;;;;5009140;28;20406;-73
2023/02/10 12:31:32;;;;;;;12.45;8.10;;;17.20;39.30;;;;;;5008694;28;20048;-76
2023/02/10 12:34:24;;;;;;;;;;;20.00;38.30;;;;;;5018861;28;20079;-73
2023/02/10 12:37:13;;;;;;;12.88;8.20;;;21.40;37.50;;;;;;5062903;28;19928;-75
2023/02/10 12:39:55;;;;;;;12.88;8.45;;;20.90;37.10;;;;;;5025796;28;20044;-74
2023/02/10 12:42:41;;;;;;;12.00;8.65;;;20.80;36.30;;;;;;5017647;28;20500;-74
2023/02/10 12:45:14;;;;;;;13.38;9.38;;;20.70;36.30;;;;;;5048302;28;20385;-73
2023/02/10 12:48:04;;;;;;;13.18;9.23;;;21.00;35.80;;;;;;5024771;28;20048;-73
2023/02/10 12:50:33;;;;;;;14.38;9.50;;;21.50;35.30;;;;;;5035348;28;20460;-74
2023/02/10 12:53:08;;;;;;;12.40;9.60;;;20.80;34.80;;;;;;5035931;28;20458;-73
2023/02/10 12:56:01;;;;;;;12.05;8.82;;;19.30;34.40;;;;;;5044494;28;20037;-71
2023/02/10 12:58:39;;;;;;;12.40;9.48;;;19.90;34.80;;;;;;5032928;28;20041;-75
2023/02/10 13:01:48;;;;;;;15.00;9.75;;;20.50;35.10;;;;;;5029085;28;20534;-73
2023/02/10 13:04:45;;;;;;;11.90;8.52;;;20.20;34.60;;;;;;4971219;28;20038;-72
2023/02/10 13:07:28;;;;;;;11.70;8.50;;;18.00;36.00;;;;;;5055461;22;20049;-73
2023/02/10 13:10:08;;;;;;;12.40;8.52;;;17.80;37.00;;;;;;5055157;28;20076;-75